N415DB PADK-PAAK

Flight info

Callsign N415DB
Flight time 1h 12m
Altitude 9000
Route TTAUN4 LONOK INOTY
Aircraft C208/L-SBDFGRY/LU2

Departure

Time 2026-05-09 01:59
Airport Adak Airport (PADK)

Arrival

Time 2026-05-09 03:11
Airport Atka Airport (PAAK)
Time Latitude Longitude Altitude Speed Heading
2026-05-09 01:52 51.87338 -176.64566 23 ft 0 kts 88°
2026-05-09 01:55 51.87351 -176.64556 23 ft 6 kts 335°
2026-05-09 01:55 51.87400 -176.64622 23 ft 13 kts 336°
2026-05-09 01:55 51.87506 -176.64607 23 ft 19 kts 18°
2026-05-09 01:56 51.87648 -176.64530 24 ft 24 kts 19°
2026-05-09 01:56 51.87820 -176.64439 24 ft 28 kts 17°
2026-05-09 01:56 51.87989 -176.64353 24 ft 19 kts 15°
2026-05-09 01:56 51.88119 -176.64338 24 ft 19 kts
2026-05-09 01:57 51.88243 -176.64335 25 ft 13 kts
2026-05-09 01:57 51.88307 -176.64351 25 ft 7 kts 327°
2026-05-09 01:57 51.88314 -176.64385 25 ft 0 kts 238°
2026-05-09 01:57 51.88308 -176.64401 25 ft 14 kts 239°
2026-05-09 01:58 51.88171 -176.64792 27 ft 63 kts 240°
2026-05-09 01:58 51.87902 -176.65571 114 ft 83 kts 243°
2026-05-09 01:58 51.87633 -176.66398 326 ft 86 kts 242°
2026-05-09 01:58 51.87292 -176.67245 465 ft 94 kts 244°
2026-05-09 01:59 51.86962 -176.68233 663 ft 106 kts 245°
2026-05-09 01:59 51.86600 -176.69294 928 ft 111 kts 247°
2026-05-09 01:59 51.86229 -176.70419 1220 ft 115 kts 257°
2026-05-09 01:59 51.86160 -176.71710 1519 ft 118 kts 286°
2026-05-09 02:00 51.86184 -176.73086 1799 ft 129 kts 263°
2026-05-09 02:00 51.85971 -176.74488 2072 ft 126 kts 262°
2026-05-09 02:00 51.85767 -176.75847 2339 ft 122 kts 262°
2026-05-09 02:00 51.85560 -176.77164 2603 ft 120 kts 263°
2026-05-09 02:01 51.85354 -176.78492 2833 ft 124 kts 262°
2026-05-09 02:01 51.85134 -176.79863 3052 ft 127 kts 262°
2026-05-09 02:01 51.84908 -176.81265 3263 ft 130 kts 261°
2026-05-09 02:01 51.84679 -176.82690 3473 ft 131 kts 261°
2026-05-09 02:02 51.84447 -176.84125 3684 ft 132 kts 261°
2026-05-09 02:02 51.84215 -176.85567 3894 ft 133 kts 260°
2026-05-09 02:02 51.83981 -176.87016 4105 ft 133 kts 260°
2026-05-09 02:02 51.83811 -176.88483 4314 ft 131 kts 278°
2026-05-09 02:03 51.84118 -176.89826 4534 ft 128 kts 309°
2026-05-09 02:03 51.84791 -176.90716 4741 ft 125 kts 339°
2026-05-09 02:03 51.85628 -176.91082 4947 ft 124 kts 347°
2026-05-09 02:03 51.86456 -176.91440 5154 ft 125 kts 346°
2026-05-09 02:04 51.87305 -176.91799 5367 ft 125 kts 346°
2026-05-09 02:04 51.88137 -176.92147 5574 ft 125 kts 346°
2026-05-09 02:04 51.88983 -176.92501 5784 ft 126 kts 346°
2026-05-09 02:04 51.89830 -176.92855 5991 ft 126 kts 346°
2026-05-09 02:05 51.90680 -176.93208 6206 ft 126 kts 346°
2026-05-09 02:05 51.91528 -176.93563 6405 ft 126 kts 346°
2026-05-09 02:05 51.92375 -176.93917 6604 ft 126 kts 346°
2026-05-09 02:05 51.93223 -176.94269 6794 ft 126 kts 346°
2026-05-09 02:06 51.94073 -176.94625 7002 ft 126 kts 347°
2026-05-09 02:06 51.94926 -176.94981 7208 ft 127 kts 347°
2026-05-09 02:06 51.95779 -176.95337 7406 ft 127 kts 347°
2026-05-09 02:07 51.97480 -176.96048 7815 ft 127 kts 348°
2026-05-09 02:07 51.98337 -176.96407 8022 ft 127 kts 348°
2026-05-09 02:07 51.99195 -176.96766 8231 ft 127 kts 348°
2026-05-09 02:07 52.00056 -176.97126 8442 ft 127 kts 348°
2026-05-09 02:08 52.00916 -176.97487 8650 ft 128 kts 349°
2026-05-09 02:08 52.01780 -176.97849 8858 ft 128 kts 351°
2026-05-09 02:08 52.02652 -176.98209 8955 ft 137 kts 349°
2026-05-09 02:08 52.03617 -176.98616 8968 ft 149 kts 349°
2026-05-09 02:09 52.04646 -176.98777 8964 ft 149 kts 15°
2026-05-09 02:09 52.05568 -176.98072 8960 ft 147 kts 41°
2026-05-09 02:09 52.06163 -176.96750 8962 ft 146 kts 69°
2026-05-09 02:09 52.06342 -176.95121 8961 ft 147 kts 84°
2026-05-09 02:10 52.06455 -176.93468 8983 ft 146 kts 82°
2026-05-09 02:10 52.06573 -176.91819 8991 ft 147 kts 83°
2026-05-09 02:10 52.06687 -176.90164 8996 ft 147 kts 82°
2026-05-09 02:10 52.06800 -176.88512 8998 ft 147 kts 82°
2026-05-09 02:11 52.06915 -176.86854 8997 ft 148 kts 83°
2026-05-09 02:11 52.07028 -176.85187 8995 ft 148 kts 83°
2026-05-09 02:11 52.07141 -176.83539 8996 ft 148 kts 83°
2026-05-09 02:11 52.07254 -176.81881 8994 ft 148 kts 83°
2026-05-09 02:12 52.07366 -176.80215 8995 ft 148 kts 83°
2026-05-09 02:12 52.07479 -176.78548 8994 ft 149 kts 83°
2026-05-09 02:12 52.07592 -176.76880 8995 ft 148 kts 83°
2026-05-09 02:12 52.07704 -176.75212 8997 ft 148 kts 83°
2026-05-09 02:13 52.07817 -176.73547 8998 ft 148 kts 83°
2026-05-09 02:13 52.07929 -176.71879 8995 ft 149 kts 83°
2026-05-09 02:13 52.08040 -176.70205 8998 ft 149 kts 83°
2026-05-09 02:13 52.08153 -176.68522 8998 ft 150 kts 83°
2026-05-09 02:14 52.08268 -176.66826 8991 ft 151 kts 81°
2026-05-09 02:14 52.08632 -176.65238 8992 ft 151 kts 63°
2026-05-09 02:14 52.09089 -176.63707 8995 ft 151 kts 66°
2026-05-09 02:14 52.09499 -176.62166 8994 ft 150 kts 67°
2026-05-09 02:15 52.09907 -176.60605 8992 ft 150 kts 67°
2026-05-09 02:15 52.10312 -176.59038 8991 ft 150 kts 67°
2026-05-09 02:15 52.10716 -176.57476 8992 ft 149 kts 67°
2026-05-09 02:15 52.11119 -176.55917 8987 ft 149 kts 68°
2026-05-09 02:16 52.11523 -176.54347 8988 ft 151 kts 69°
2026-05-09 02:16 52.11933 -176.52760 8992 ft 152 kts 69°
2026-05-09 02:16 52.12342 -176.51166 8992 ft 154 kts 69°
2026-05-09 02:16 52.12754 -176.49570 8992 ft 155 kts 68°
2026-05-09 02:17 52.13172 -176.47951 8995 ft 155 kts 68°
2026-05-09 02:17 52.13584 -176.46341 8991 ft 154 kts 68°
2026-05-09 02:17 52.13997 -176.44739 8982 ft 153 kts 68°
2026-05-09 02:17 52.14406 -176.43148 8981 ft 152 kts 69°
2026-05-09 02:18 52.14810 -176.41569 8979 ft 151 kts 68°
2026-05-09 02:18 52.15214 -176.39994 8976 ft 151 kts 69°
2026-05-09 02:18 52.15617 -176.38419 8977 ft 150 kts 69°
2026-05-09 02:18 52.16019 -176.36849 8975 ft 150 kts 69°
2026-05-09 02:19 52.16422 -176.35273 8972 ft 150 kts 68°
2026-05-09 02:19 52.16822 -176.33714 8957 ft 150 kts 69°
2026-05-09 02:19 52.17223 -176.32143 8966 ft 150 kts 69°
2026-05-09 02:19 52.17625 -176.30569 8971 ft 151 kts 69°
2026-05-09 02:20 52.18028 -176.28992 8971 ft 150 kts 69°
2026-05-09 02:20 52.18427 -176.27421 8970 ft 150 kts 69°
2026-05-09 02:20 52.18828 -176.25853 8969 ft 150 kts 69°
2026-05-09 02:20 52.19227 -176.24286 8963 ft 150 kts 69°
2026-05-09 02:21 52.19625 -176.22719 8968 ft 149 kts 69°
2026-05-09 02:21 52.19890 -176.21679 8970 ft 150 kts 69°
2026-05-09 02:21 52.20291 -176.20096 8974 ft 152 kts 69°
2026-05-09 02:21 52.20832 -176.17964 8981 ft 156 kts 69°
2026-05-09 02:22 52.21115 -176.16855 8978 ft 158 kts 69°
2026-05-09 02:22 52.21534 -176.15200 8981 ft 161 kts 69°
2026-05-09 02:22 52.21965 -176.13500 8978 ft 162 kts 68°
2026-05-09 02:22 52.22396 -176.11804 8969 ft 161 kts 69°
2026-05-09 02:23 52.22822 -176.10121 8963 ft 159 kts 69°
2026-05-09 02:23 52.23238 -176.08467 8964 ft 156 kts 69°
2026-05-09 02:23 52.23648 -176.06848 8957 ft 153 kts 69°
2026-05-09 02:23 52.24050 -176.05254 8957 ft 151 kts 69°
2026-05-09 02:24 52.24450 -176.03668 8962 ft 151 kts 69°
2026-05-09 02:24 52.24850 -176.02082 8963 ft 151 kts 69°
2026-05-09 02:24 52.25248 -176.00498 8962 ft 151 kts 69°
2026-05-09 02:24 52.25648 -175.98909 8957 ft 151 kts 69°
2026-05-09 02:25 52.26047 -175.97326 8963 ft 151 kts 69°
2026-05-09 02:25 52.26438 -175.95764 8954 ft 151 kts 69°
2026-05-09 02:25 52.26836 -175.94184 8963 ft 150 kts 70°
2026-05-09 02:25 52.27233 -175.92600 8963 ft 150 kts 69°
2026-05-09 02:26 52.27630 -175.91017 8963 ft 150 kts 70°
2026-05-09 02:26 52.28028 -175.89433 8964 ft 150 kts 70°
2026-05-09 02:26 52.28423 -175.87853 8964 ft 150 kts 69°
2026-05-09 02:26 52.28821 -175.86262 8965 ft 151 kts 70°
2026-05-09 02:27 52.29213 -175.84696 8965 ft 151 kts 69°
2026-05-09 02:27 52.29610 -175.83109 8958 ft 151 kts 70°
2026-05-09 02:27 52.30005 -175.81529 8958 ft 150 kts 70°
2026-05-09 02:27 52.30398 -175.79949 8950 ft 150 kts 70°
2026-05-09 02:28 52.30792 -175.78372 8955 ft 150 kts 70°
2026-05-09 02:28 52.31185 -175.76792 8955 ft 150 kts 70°
2026-05-09 02:28 52.31579 -175.75212 8946 ft 149 kts 70°
2026-05-09 02:28 52.31970 -175.73641 8954 ft 149 kts 70°
2026-05-09 02:29 52.32362 -175.72070 8956 ft 149 kts 70°
2026-05-09 02:29 52.32753 -175.70498 8957 ft 149 kts 70°
2026-05-09 02:29 52.33144 -175.68922 8956 ft 149 kts 70°
2026-05-09 02:29 52.33536 -175.67344 8958 ft 149 kts 70°
2026-05-09 02:30 52.33925 -175.65773 8958 ft 149 kts 70°
2026-05-09 02:30 52.34314 -175.64204 8958 ft 149 kts 70°
2026-05-09 02:30 52.34703 -175.62639 8963 ft 152 kts 69°
2026-05-09 02:30 52.35102 -175.61023 8964 ft 155 kts 70°
2026-05-09 02:31 52.35506 -175.59388 8966 ft 155 kts 70°
2026-05-09 02:31 52.35910 -175.57751 8967 ft 155 kts 70°
2026-05-09 02:31 52.36316 -175.56106 8963 ft 156 kts 70°
2026-05-09 02:31 52.36724 -175.54459 8962 ft 156 kts 70°
2026-05-09 02:32 52.37127 -175.52820 8961 ft 154 kts 70°
2026-05-09 02:32 52.37527 -175.51197 8962 ft 154 kts 71°
2026-05-09 02:32 52.37926 -175.49574 8959 ft 153 kts 71°
2026-05-09 02:32 52.38325 -175.47958 8955 ft 152 kts 70°
2026-05-09 02:33 52.38718 -175.46360 8951 ft 151 kts 71°
2026-05-09 02:33 52.39108 -175.44772 8942 ft 150 kts 71°
2026-05-09 02:33 52.39492 -175.43208 8950 ft 150 kts 71°
2026-05-09 02:33 52.39882 -175.41616 8954 ft 151 kts 70°
2026-05-09 02:34 52.40275 -175.40011 8956 ft 152 kts 71°
2026-05-09 02:34 52.40669 -175.38400 8956 ft 152 kts 71°
2026-05-09 02:34 52.41062 -175.36795 8957 ft 152 kts 70°
2026-05-09 02:34 52.41457 -175.35182 8960 ft 153 kts 70°
2026-05-09 02:35 52.41854 -175.33559 8961 ft 154 kts 71°
2026-05-09 02:35 52.42252 -175.31927 8961 ft 154 kts 70°
2026-05-09 02:35 52.42648 -175.30306 8960 ft 153 kts 71°
2026-05-09 02:35 52.43041 -175.28693 8955 ft 152 kts 71°
2026-05-09 02:36 52.43430 -175.27097 8956 ft 152 kts 71°
2026-05-09 02:36 52.43823 -175.25481 8954 ft 152 kts 71°
2026-05-09 02:36 52.44214 -175.23873 8950 ft 151 kts 71°
2026-05-09 02:36 52.44603 -175.22274 8947 ft 150 kts 71°
2026-05-09 02:37 52.44989 -175.20688 8944 ft 149 kts 71°
2026-05-09 02:37 52.45372 -175.19112 8942 ft 149 kts 71°
2026-05-09 02:37 52.45754 -175.17533 8942 ft 148 kts 71°
2026-05-09 02:37 52.46135 -175.15962 8940 ft 148 kts 72°
2026-05-09 02:38 52.46514 -175.14392 8945 ft 148 kts 72°
2026-05-09 02:38 52.46895 -175.12823 8946 ft 148 kts 71°
2026-05-09 02:38 52.47270 -175.11275 8949 ft 148 kts 72°
2026-05-09 02:38 52.47649 -175.09708 8949 ft 148 kts 72°
2026-05-09 02:39 52.48027 -175.08141 8946 ft 148 kts 72°
2026-05-09 02:39 52.48405 -175.06575 8946 ft 148 kts 72°
2026-05-09 02:39 52.48783 -175.05010 8957 ft 147 kts 72°
2026-05-09 02:39 52.49159 -175.03449 8956 ft 148 kts 72°
2026-05-09 02:40 52.49538 -175.01875 8962 ft 149 kts 72°
2026-05-09 02:40 52.49920 -175.00289 8963 ft 149 kts 72°
2026-05-09 02:40 52.50301 -174.98707 8956 ft 149 kts 72°
2026-05-09 02:40 52.50679 -174.97130 8956 ft 149 kts 72°
2026-05-09 02:41 52.51053 -174.95573 8954 ft 149 kts 72°
2026-05-09 02:41 52.51433 -174.93994 8953 ft 149 kts 72°
2026-05-09 02:41 52.51811 -174.92416 8954 ft 149 kts 72°
2026-05-09 02:41 52.52191 -174.90834 8953 ft 149 kts 72°
2026-05-09 02:42 52.52569 -174.89254 8953 ft 148 kts 72°
2026-05-09 02:42 52.52946 -174.87679 8954 ft 148 kts 72°
2026-05-09 02:42 52.53322 -174.86104 8955 ft 148 kts 72°
2026-05-09 02:42 52.53700 -174.84523 8955 ft 149 kts 72°
2026-05-09 02:43 52.54077 -174.82941 8959 ft 148 kts 72°
2026-05-09 02:43 52.54454 -174.81363 8960 ft 148 kts 72°
2026-05-09 02:43 52.54831 -174.79783 8962 ft 148 kts 72°
2026-05-09 02:43 52.55209 -174.78200 8960 ft 149 kts 72°
2026-05-09 02:44 52.55587 -174.76612 8957 ft 149 kts 72°
2026-05-09 02:44 52.55959 -174.75051 8957 ft 149 kts 72°
2026-05-09 02:44 52.56335 -174.73464 8957 ft 149 kts 72°
2026-05-09 02:44 52.56713 -174.71878 8957 ft 149 kts 72°
2026-05-09 02:45 52.57089 -174.70290 8957 ft 149 kts 72°
2026-05-09 02:45 52.57464 -174.68708 8957 ft 148 kts 72°
2026-05-09 02:45 52.57839 -174.67128 8956 ft 148 kts 72°
2026-05-09 02:45 52.58214 -174.65547 8956 ft 149 kts 72°
2026-05-09 02:46 52.58587 -174.63964 8956 ft 148 kts 73°
2026-05-09 02:46 52.58721 -174.62324 8955 ft 145 kts 100°
2026-05-09 02:46 52.58461 -174.60735 8958 ft 144 kts 106°
2026-05-09 02:46 52.58204 -174.59140 8959 ft 144 kts 105°
2026-05-09 02:47 52.57945 -174.57546 8960 ft 144 kts 105°
2026-05-09 02:47 52.57685 -174.55951 8961 ft 144 kts 106°
2026-05-09 02:47 52.57423 -174.54349 8961 ft 144 kts 106°
2026-05-09 02:47 52.57161 -174.52756 8961 ft 144 kts 106°
2026-05-09 02:48 52.56900 -174.51160 8964 ft 144 kts 106°
2026-05-09 02:48 52.56640 -174.49586 8964 ft 144 kts 106°
2026-05-09 02:48 52.56378 -174.47989 8963 ft 144 kts 106°
2026-05-09 02:48 52.56116 -174.46397 8963 ft 144 kts 106°
2026-05-09 02:49 52.55853 -174.44807 8969 ft 145 kts 106°
2026-05-09 02:49 52.55584 -174.43183 8973 ft 150 kts 106°
2026-05-09 02:49 52.55309 -174.41503 8970 ft 155 kts 105°
2026-05-09 02:49 52.55024 -174.39783 8978 ft 157 kts 105°
2026-05-09 02:50 52.54738 -174.38057 8974 ft 157 kts 106°
2026-05-09 02:50 52.54451 -174.36332 8976 ft 157 kts 106°
2026-05-09 02:50 52.54162 -174.34591 8979 ft 159 kts 106°
2026-05-09 02:50 52.53874 -174.32858 8979 ft 160 kts 106°
2026-05-09 02:51 52.53580 -174.31077 8981 ft 162 kts 106°
2026-05-09 02:51 52.53280 -174.29266 8982 ft 165 kts 106°
2026-05-09 02:51 52.52977 -174.27461 8971 ft 163 kts 105°
2026-05-09 02:51 52.52682 -174.25693 8963 ft 158 kts 106°
2026-05-09 02:52 52.52394 -174.23975 8961 ft 154 kts 106°
2026-05-09 02:52 52.52115 -174.22296 8961 ft 151 kts 106°
2026-05-09 02:52 52.51840 -174.20651 8963 ft 148 kts 106°
2026-05-09 02:52 52.51570 -174.19031 8963 ft 147 kts 106°
2026-05-09 02:53 52.51300 -174.17421 8962 ft 146 kts 106°
2026-05-09 02:53 52.51031 -174.15818 8963 ft 145 kts 106°
2026-05-09 02:53 52.50766 -174.14240 8962 ft 145 kts 106°
2026-05-09 02:53 52.50498 -174.12643 8963 ft 145 kts 106°
2026-05-09 02:54 52.50230 -174.11048 8965 ft 145 kts 106°
2026-05-09 02:54 52.49962 -174.09455 8965 ft 145 kts 106°
2026-05-09 02:54 52.49694 -174.07867 8964 ft 144 kts 106°
2026-05-09 02:54 52.49426 -174.06274 8964 ft 144 kts 106°
2026-05-09 02:55 52.49157 -174.04681 8966 ft 145 kts 106°
2026-05-09 02:55 52.48885 -174.03076 8973 ft 148 kts 106°
2026-05-09 02:55 52.48610 -174.01438 8971 ft 150 kts 106°
2026-05-09 02:55 52.48329 -173.99790 8969 ft 150 kts 106°
2026-05-09 02:56 52.48051 -173.98150 8969 ft 148 kts 106°
2026-05-09 02:56 52.47775 -173.96523 8968 ft 148 kts 106°
2026-05-09 02:56 52.47501 -173.94901 8964 ft 147 kts 106°
2026-05-09 02:56 52.47226 -173.93290 8963 ft 146 kts 106°
2026-05-09 02:57 52.46953 -173.91683 8965 ft 146 kts 106°
2026-05-09 02:57 52.46682 -173.90067 8794 ft 147 kts 105°
2026-05-09 02:57 52.46410 -173.88465 8605 ft 145 kts 106°
2026-05-09 02:57 52.46138 -173.86878 8415 ft 144 kts 107°
2026-05-09 02:58 52.45637 -173.85484 8226 ft 144 kts 135°
2026-05-09 02:58 52.44752 -173.84703 8039 ft 148 kts 163°
2026-05-09 02:58 52.43720 -173.84722 7864 ft 153 kts 183°
2026-05-09 02:58 52.42666 -173.84942 7687 ft 153 kts 181°
2026-05-09 02:59 52.41609 -173.85139 7510 ft 153 kts 181°
2026-05-09 02:59 52.40551 -173.85337 7331 ft 153 kts 181°
2026-05-09 02:59 52.39490 -173.85536 7159 ft 154 kts 181°
2026-05-09 02:59 52.38423 -173.85738 6979 ft 154 kts 181°
2026-05-09 03:00 52.37362 -173.85939 6804 ft 153 kts 181°
2026-05-09 03:00 52.36302 -173.86139 6643 ft 153 kts 181°
2026-05-09 03:00 52.35246 -173.86338 6473 ft 152 kts 181°
2026-05-09 03:00 52.34199 -173.86536 6296 ft 151 kts 181°
2026-05-09 03:01 52.33152 -173.86733 6122 ft 151 kts 181°
2026-05-09 03:01 52.32106 -173.86930 5932 ft 151 kts 181°
2026-05-09 03:01 52.31072 -173.87126 5749 ft 151 kts 181°
2026-05-09 03:01 52.30037 -173.87319 5563 ft 149 kts 181°
2026-05-09 03:02 52.29012 -173.87512 5378 ft 148 kts 181°
2026-05-09 03:02 52.27994 -173.87705 5194 ft 147 kts 181°
2026-05-09 03:02 52.26976 -173.87896 4991 ft 148 kts 181°
2026-05-09 03:02 52.25953 -173.88089 4788 ft 148 kts 181°
2026-05-09 03:03 52.24942 -173.88278 4587 ft 148 kts 181°
2026-05-09 03:03 52.23919 -173.88471 4374 ft 148 kts 181°
2026-05-09 03:03 52.22896 -173.88663 4163 ft 148 kts 181°
2026-05-09 03:03 52.21871 -173.88856 3952 ft 148 kts 181°
2026-05-09 03:04 52.20849 -173.89048 3744 ft 148 kts 181°
2026-05-09 03:04 52.19828 -173.89239 3536 ft 147 kts 181°
2026-05-09 03:04 52.18844 -173.89732 3325 ft 154 kts 208°
2026-05-09 03:04 52.18134 -173.91057 3120 ft 161 kts 240°
2026-05-09 03:05 52.17954 -173.92864 2931 ft 165 kts 272°
2026-05-09 03:05 52.18036 -173.94093 2813 ft 164 kts 274°
2026-05-09 03:05 52.18142 -173.95946 2633 ft 164 kts 272°
2026-05-09 03:05 52.18240 -173.97807 2462 ft 167 kts 272°
2026-05-09 03:06 52.18342 -173.99721 2290 ft 172 kts 272°
2026-05-09 03:06 52.18443 -174.01692 2117 ft 176 kts 273°
2026-05-09 03:06 52.18558 -174.03670 2000 ft 173 kts 274°
2026-05-09 03:06 52.18663 -174.05556 1992 ft 160 kts 276°
2026-05-09 03:07 52.18994 -174.07269 1843 ft 157 kts 292°
2026-05-09 03:07 52.19372 -174.08899 1703 ft 151 kts 290°
2026-05-09 03:07 52.19721 -174.10462 1575 ft 139 kts 290°
2026-05-09 03:07 52.20042 -174.11892 1448 ft 131 kts 290°
2026-05-09 03:08 52.20348 -174.13254 1309 ft 128 kts 290°
2026-05-09 03:08 52.20644 -174.14578 1294 ft 121 kts 290°
2026-05-09 03:08 52.20941 -174.15842 1278 ft 118 kts 300°
2026-05-09 03:08 52.21504 -174.16695 1348 ft 109 kts 331°
2026-05-09 03:09 52.22157 -174.17322 1351 ft 105 kts 333°
2026-05-09 03:09 52.22786 -174.17913 1318 ft 104 kts 334°
2026-05-09 03:09 52.23423 -174.18479 1288 ft 105 kts 336°
2026-05-09 03:09 52.24062 -174.19005 1288 ft 103 kts 338°
2026-05-09 03:10 52.24620 -174.19730 1190 ft 108 kts 300°
2026-05-09 03:10 52.24624 -174.20901 1054 ft 104 kts 239°
2026-05-09 03:10 52.24096 -174.21588 738 ft 98 kts 183°
2026-05-09 03:10 52.23469 -174.21291 413 ft 95 kts 155°
2026-05-09 03:11 52.22855 -174.20992 136 ft 89 kts 164°
2026-05-09 03:11 52.22323 -174.20746 48 ft 68 kts 165°
2026-05-09 03:11 52.21976 -174.20586 40 ft 37 kts 164°
2026-05-09 03:11 52.21791 -174.20501 37 ft 18 kts 163°
2026-05-09 03:12 52.21706 -174.20477 38 ft 11 kts 206°
2026-05-09 03:12 52.21681 -174.20590 36 ft 12 kts 257°
2026-05-09 03:12 52.21653 -174.20689 36 ft 11 kts 236°
2026-05-09 03:12 52.21601 -174.20734 35 ft 7 kts 139°
2026-05-09 03:13 52.21608 -174.20696 35 ft 0 kts 340°